Time;durP1;ratioP1;P1;durP2;ratioP2;P2;SDS_P1;SDS_P2;PMS_P1;PMS_P2;Temp;Humidity;BMP_temperature;BMP_pressure;BME280_temperature;BME280_humidity;BME280_pressure;Samples;Min_cycle;Max_cycle;Signal;HPM_P1;HPM_P2
2021/01/31 00:00:42;;;;;;;30.73;16.40;;;0.70;99.90;;;;;;5031133;28;20060;-78
2021/01/31 00:03:10;;;;;;;28.40;17.25;;;0.70;99.90;;;;;;5031551;28;20103;-78
2021/01/31 00:05:38;;;;;;;31.40;18.83;;;0.70;99.90;;;;;;5030668;28;20498;-78
2021/01/31 00:08:07;;;;;;;32.83;16.90;;;0.60;99.90;;;;;;5031922;28;20065;-78
2021/01/31 00:10:34;;;;;;;30.85;19.33;;;0.70;99.90;;;;;;5034982;28;20053;-78
2021/01/31 00:13:02;;;;;;;29.85;18.33;;;0.60;99.90;;;;;;5035099;28;20045;-78
2021/01/31 00:15:31;;;;;;;28.00;15.45;;;0.60;99.90;;;;;;5016743;28;20041;-78
2021/01/31 00:17:57;;;;;;;26.40;17.80;;;0.70;99.90;;;;;;5035008;28;20418;-78
2021/01/31 00:20:29;;;;;;;30.55;18.80;;;0.60;99.90;;;;;;5016410;28;20482;-78
2021/01/31 00:22:56;;;;;;;30.55;18.17;;;0.60;99.90;;;;;;5034491;28;20556;-78
2021/01/31 00:25:24;;;;;;;32.40;18.77;;;0.70;99.90;;;;;;5034928;28;20049;-78
2021/01/31 00:27:51;;;;;;;27.23;17.23;;;0.60;99.90;;;;;;5034540;28;20045;-78
2021/01/31 00:30:21;;;;;;;32.38;18.35;;;0.70;99.90;;;;;;5034812;28;20045;-79
2021/01/31 00:32:48;;;;;;;30.88;19.17;;;0.60;99.90;;;;;;5034815;28;20083;-78
2021/01/31 00:35:16;;;;;;;31.25;18.70;;;0.60;99.90;;;;;;5034458;28;20045;-78
2021/01/31 00:37:42;;;;;;;33.35;19.08;;;0.70;99.90;;;;;;5034123;28;20068;-79
2021/01/31 00:40:09;;;;;;;;;;;0.60;99.90;;;;;;5035091;28;20046;-79
2021/01/31 00:42:37;;;;;;;31.75;18.45;;;0.60;99.90;;;;;;5035605;28;19927;-79
2021/01/31 00:45:07;;;;;;;30.58;19.40;;;0.60;99.90;;;;;;5004077;28;20132;-79
2021/01/31 00:47:34;;;;;;;29.45;18.50;;;0.60;99.90;;;;;;5014111;28;20047;-79
2021/01/31 00:50:00;;;;;;;;;;;0.60;99.90;;;;;;5015136;28;20133;-79
2021/01/31 00:52:27;;;;;;;27.45;16.83;;;0.50;99.90;;;;;;5013027;28;19922;-78
2021/01/31 00:54:54;;;;;;;29.67;17.95;;;0.50;99.90;;;;;;4996797;28;20046;-78
2021/01/31 00:57:21;;;;;;;30.63;18.30;;;0.50;99.90;;;;;;4996922;28;20112;-78
2021/01/31 00:59:48;;;;;;;;;;;0.50;99.90;;;;;;5015166;28;20089;-78
2021/01/31 01:02:19;;;;;;;36.75;18.90;;;0.50;99.90;;;;;;5016476;28;19929;-79
2021/01/31 01:04:47;;;;;;;33.15;18.88;;;0.50;99.90;;;;;;5015763;28;20072;-78
2021/01/31 01:07:15;;;;;;;28.15;17.23;;;0.50;99.90;;;;;;5016544;28;20049;-78
2021/01/31 01:09:42;;;;;;;33.15;19.40;;;0.50;99.90;;;;;;5033531;28;20085;-78
2021/01/31 01:12:10;;;;;;;31.52;18.23;;;0.40;99.90;;;;;;5034242;28;20037;-78
2021/01/31 01:14:37;;;;;;;33.42;18.75;;;0.50;99.90;;;;;;5033158;28;20038;-78
2021/01/31 01:17:04;;;;;;;31.15;18.90;;;0.40;99.90;;;;;;5032346;28;20053;-78
2021/01/31 01:19:31;;;;;;;31.63;18.48;;;0.50;99.90;;;;;;5033073;28;20060;-78
2021/01/31 01:21:58;;;;;;;;;;;0.50;99.90;;;;;;5016435;28;20486;-78
2021/01/31 01:24:24;;;;;;;28.88;16.85;;;0.50;99.90;;;;;;5032539;28;19963;-78
2021/01/31 01:26:51;;;;;;;32.25;18.35;;;0.50;99.90;;;;;;5033471;28;20053;-79
2021/01/31 01:29:17;;;;;;;29.65;17.73;;;0.50;99.90;;;;;;5033814;28;20037;-79
2021/01/31 01:31:44;;;;;;;30.65;17.45;;;0.50;99.90;;;;;;5033118;28;20055;-78
2021/01/31 01:34:11;;;;;;;;;;;0.50;99.90;;;;;;5034108;28;20063;-78
2021/01/31 01:36:38;;;;;;;30.67;16.40;;;0.40;99.90;;;;;;5032618;28;19964;-78
2021/01/31 01:39:05;;;;;;;27.65;16.88;;;0.40;99.90;;;;;;5033522;28;20095;-79
2021/01/31 01:41:37;;;;;;;31.55;18.67;;;0.30;99.90;;;;;;5032776;28;20049;-79
2021/01/31 01:44:03;;;;;;;31.70;18.33;;;0.30;99.90;;;;;;5033527;28;20065;-79
2021/01/31 01:46:37;;;;;;;32.40;19.10;;;0.20;99.90;;;;;;5032692;28;20041;-78
2021/01/31 01:49:11;;;;;;;34.10;18.98;;;0.20;99.90;;;;;;5032944;28;20490;-79
2021/01/31 01:51:43;;;;;;;31.13;16.98;;;0.20;99.90;;;;;;5032489;28;20095;-78
2021/01/31 01:54:14;;;;;;;27.27;16.92;;;0.10;99.90;;;;;;5033298;28;20042;-79
2021/01/31 01:56:44;;;;;;;32.22;18.80;;;0.00;99.90;;;;;;5032726;28;20045;-79
2021/01/31 01:59:11;;;;;;;34.50;19.25;;;0.00;99.90;;;;;;5033177;28;20225;-79
2021/01/31 02:01:44;;;;;;;30.45;18.08;;;0.00;99.90;;;;;;5031842;28;20041;-78
2021/01/31 02:04:11;;;;;;;29.05;18.00;;;0.00;99.90;;;;;;5033294;28;20049;-79
2021/01/31 02:06:38;;;;;;;31.90;17.92;;;0.00;99.90;;;;;;5032210;28;20056;-79
2021/01/31 02:09:06;;;;;;;29.20;17.02;;;-0.10;99.90;;;;;;5032616;28;20045;-77
2021/01/31 02:11:33;;;;;;;30.45;18.42;;;-0.10;99.90;;;;;;5032792;28;20371;-78
2021/01/31 02:14:03;;;;;;;29.15;17.15;;;-0.10;99.90;;;;;;5033020;28;20045;-78
2021/01/31 02:16:40;;;;;;;33.53;17.92;;;-0.10;99.90;;;;;;5032426;28;20147;-78
2021/01/31 02:19:31;;;;;;;31.17;18.77;;;-0.10;99.90;;;;;;5015249;28;20054;-78
2021/01/31 02:22:39;;;;;;;32.33;18.17;;;-0.10;99.90;;;;;;5034911;28;20041;-78
2021/01/31 02:25:42;;;;;;;29.35;18.33;;;-0.20;99.90;;;;;;5036498;28;20049;-79
2021/01/31 02:28:51;;;;;;;33.08;17.75;;;-0.30;99.90;;;;;;5036322;28;20064;-78
2021/01/31 02:31:27;;;;;;;28.92;16.70;;;-0.20;99.90;;;;;;5034953;28;20042;-78
2021/01/31 02:33:59;;;;;;;35.83;17.97;;;-0.20;99.90;;;;;;5032901;28;20045;-77
2021/01/31 02:36:41;;;;;;;29.52;17.15;;;-0.30;99.90;;;;;;5014597;28;20042;-78
2021/01/31 02:39:19;;;;;;;33.55;17.42;;;-0.30;99.90;;;;;;5032750;28;20120;-79
2021/01/31 02:41:53;;;;;;;31.88;17.58;;;-0.40;99.90;;;;;;5031547;28;20041;-79
2021/01/31 02:44:24;;;;;;;28.17;16.00;;;-0.30;99.90;;;;;;5032289;28;20429;-78
2021/01/31 02:46:55;;;;;;;28.85;16.40;;;-0.30;99.90;;;;;;5032174;28;20048;-79
2021/01/31 02:49:25;;;;;;;27.98;16.30;;;-0.30;99.90;;;;;;5014622;28;20076;-78
2021/01/31 02:51:58;;;;;;;24.95;15.45;;;-0.40;99.90;;;;;;5032383;28;20042;-78
2021/01/31 02:54:31;;;;;;;26.23;15.85;;;-0.30;99.90;;;;;;5031271;28;20045;-78
2021/01/31 02:57:02;;;;;;;25.15;14.98;;;-0.30;99.90;;;;;;5032152;28;20494;-79
2021/01/31 02:59:36;;;;;;;27.95;15.43;;;-0.30;99.90;;;;;;5032034;28;20107;-78
2021/01/31 03:02:07;;;;;;;25.63;14.27;;;-0.30;99.90;;;;;;5032519;28;20096;-78
2021/01/31 03:04:38;;;;;;;32.10;15.98;;;-0.30;99.90;;;;;;5031854;28;20037;-78
2021/01/31 03:07:11;;;;;;;25.33;15.30;;;-0.30;99.90;;;;;;5031854;28;20037;-78
2021/01/31 03:09:47;;;;;;;29.15;16.25;;;-0.30;99.90;;;;;;5031184;28;20469;-79
2021/01/31 03:12:18;;;;;;;25.80;14.40;;;-0.20;99.90;;;;;;5032175;28;20042;-78
2021/01/31 03:14:51;;;;;;;26.13;14.93;;;-0.20;99.90;;;;;;5031245;28;20061;-77
2021/01/31 03:17:22;;;;;;;25.75;14.60;;;-0.20;99.90;;;;;;5032193;28;20048;-79
2021/01/31 03:19:56;;;;;;;23.52;14.18;;;-0.20;99.90;;;;;;5031446;28;20069;-78
2021/01/31 03:22:27;;;;;;;21.25;12.82;;;-0.20;99.90;;;;;;5031702;28;20084;-78
2021/01/31 03:24:59;;;;;;;26.52;14.27;;;-0.20;99.90;;;;;;5031487;28;20049;-79
2021/01/31 03:27:32;;;;;;;22.63;13.48;;;-0.20;99.90;;;;;;5031542;28;20052;-79
2021/01/31 03:29:59;;;;;;;23.38;13.32;;;-0.10;99.90;;;;;;5032202;28;20065;-79
2021/01/31 03:32:29;;;;;;;24.30;14.23;;;-0.10;99.90;;;;;;5030723;28;20521;-79
2021/01/31 03:34:59;;;;;;;25.48;14.07;;;-0.20;99.90;;;;;;5032093;28;20061;-79
2021/01/31 03:37:32;;;;;;;23.65;13.57;;;-0.30;99.90;;;;;;5031477;28;20096;-80
2021/01/31 03:40:02;;;;;;;23.63;13.68;;;-0.30;99.90;;;;;;5031647;28;20065;-80
2021/01/31 03:42:29;;;;;;;22.10;13.70;;;-0.30;99.90;;;;;;5031472;28;20052;-79
2021/01/31 03:44:57;;;;;;;;;;;-0.20;99.90;;;;;;5036277;28;20049;-79
2021/01/31 03:47:29;;;;;;;22.23;13.20;;;-0.20;99.90;;;;;;5034531;28;19921;-78
2021/01/31 03:49:58;;;;;;;22.35;13.02;;;-0.20;99.90;;;;;;5035383;28;20375;-79
2021/01/31 03:52:26;;;;;;;24.83;13.43;;;-0.20;99.90;;;;;;5034802;28;20048;-79
2021/01/31 03:54:53;;;;;;;22.13;13.55;;;-0.30;99.90;;;;;;5035035;28;20034;-79
2021/01/31 03:57:25;;;;;;;22.95;13.15;;;-0.30;99.90;;;;;;5035423;28;20056;-79
2021/01/31 03:59:56;;;;;;;26.58;13.80;;;-0.30;99.90;;;;;;5035432;28;20041;-79
2021/01/31 04:02:27;;;;;;;21.27;12.60;;;-0.30;99.90;;;;;;5035403;28;20049;-78
2021/01/31 04:04:55;;;;;;;22.63;13.48;;;-0.30;99.90;;;;;;5035495;28;20053;-78
2021/01/31 04:07:28;;;;;;;21.60;13.13;;;-0.40;99.90;;;;;;5034833;28;20492;-78
2021/01/31 04:09:56;;;;;;;21.60;12.70;;;-0.40;99.90;;;;;;5035310;28;20041;-79
2021/01/31 04:12:25;;;;;;;26.42;12.98;;;-0.40;99.90;;;;;;5034664;28;20121;-79
2021/01/31 04:14:55;;;;;;;22.50;13.93;;;-0.40;99.90;;;;;;5035008;28;20045;-79
2021/01/31 04:17:23;;;;;;;24.02;14.98;;;-0.40;99.90;;;;;;5035162;28;20163;-79
2021/01/31 04:19:50;;;;;;;23.65;13.75;;;-0.40;99.90;;;;;;5035118;28;20432;-79
2021/01/31 04:22:17;;;;;;;24.98;15.27;;;-0.40;99.90;;;;;;5034465;28;20395;-79
2021/01/31 04:24:45;;;;;;;;;;;-0.40;99.90;;;;;;5034295;28;20049;-79
2021/01/31 04:27:12;;;;;;;19.63;12.70;;;-0.40;99.90;;;;;;5033556;28;19928;-79
2021/01/31 04:29:40;;;;;;;22.05;13.77;;;-0.40;99.90;;;;;;5034060;28;20103;-79
2021/01/31 04:32:06;;;;;;;22.80;13.38;;;-0.40;99.90;;;;;;5034895;28;20442;-79
2021/01/31 04:34:33;;;;;;;22.83;14.27;;;-0.40;99.90;;;;;;5033918;28;20509;-79
2021/01/31 04:36:59;;;;;;;21.35;13.23;;;-0.50;99.90;;;;;;5034734;28;20037;-79
2021/01/31 04:39:26;;;;;;;23.42;13.60;;;-0.60;99.90;;;;;;5033574;28;20049;-79
2021/01/31 04:41:53;;;;;;;25.33;15.52;;;-0.50;99.90;;;;;;5034484;28;20095;-79
2021/01/31 04:44:22;;;;;;;24.58;13.65;;;-0.60;99.90;;;;;;5034713;28;20052;-79
2021/01/31 04:46:51;;;;;;;25.85;14.30;;;-0.60;99.90;;;;;;5034169;28;20041;-79
2021/01/31 04:49:38;;;;;;;23.48;14.38;;;-0.70;99.90;;;;;;5034589;28;20045;-79
2021/01/31 04:52:37;;;;;;;22.73;13.85;;;-0.70;99.90;;;;;;5034542;28;20041;-79
2021/01/31 04:55:20;;;;;;;24.80;14.90;;;-0.70;99.90;;;;;;5013607;28;20057;-79
2021/01/31 04:57:53;;;;;;;24.30;14.57;;;-0.60;99.90;;;;;;5033450;28;20073;-78
2021/01/31 05:00:23;;;;;;;26.45;14.18;;;-0.40;99.90;;;;;;5034021;28;20065;-78
2021/01/31 05:02:55;;;;;;;23.92;14.57;;;-0.60;99.90;;;;;;5034228;28;20065;-79
2021/01/31 05:05:27;;;;;;;25.02;15.13;;;-0.60;99.90;;;;;;5034294;28;20136;-79
2021/01/31 05:07:56;;;;;;;23.63;14.30;;;-0.80;99.90;;;;;;5033318;28;20045;-79
2021/01/31 05:10:24;;;;;;;23.90;14.23;;;-1.00;99.90;;;;;;5034121;28;20192;-76
2021/01/31 05:13:09;;;;;;;26.38;13.90;;;-1.10;99.90;;;;;;5034098;28;20041;-79
2021/01/31 05:15:44;;;;;;;24.55;14.60;;;-1.10;99.90;;;;;;5032989;28;20119;-79
2021/01/31 05:18:14;;;;;;;24.38;15.43;;;-1.10;99.90;;;;;;5033607;28;20050;-78
2021/01/31 05:20:43;;;;;;;26.23;15.07;;;-1.20;99.90;;;;;;5033073;28;20124;-78
2021/01/31 05:23:10;;;;;;;25.77;15.30;;;-1.10;99.90;;;;;;5033581;28;20091;-79
2021/01/31 05:25:38;;;;;;;25.63;15.02;;;-1.10;99.90;;;;;;5033082;28;20103;-80
2021/01/31 05:28:07;;;;;;;31.45;15.32;;;-1.10;99.90;;;;;;5033448;28;20128;-78
2021/01/31 05:30:40;;;;;;;27.27;15.52;;;-1.10;99.90;;;;;;5033220;28;20046;-77
2021/01/31 05:33:10;;;;;;;25.52;15.13;;;-1.10;99.90;;;;;;5033492;28;20068;-79
2021/01/31 05:35:40;;;;;;;26.30;14.35;;;-1.20;99.90;;;;;;5033208;28;20050;-78
2021/01/31 05:38:07;;;;;;;26.48;15.27;;;-1.20;99.90;;;;;;5033395;28;20393;-78
2021/01/31 05:40:36;;;;;;;28.42;15.43;;;-1.20;99.90;;;;;;5032643;28;20042;-78
2021/01/31 05:43:05;;;;;;;26.27;15.60;;;-1.20;99.90;;;;;;5033135;28;20053;-79
2021/01/31 05:45:36;;;;;;;32.13;15.48;;;-1.20;99.90;;;;;;5033053;28;20548;-79
2021/01/31 05:48:23;;;;;;;27.52;16.05;;;-1.30;99.90;;;;;;5033403;28;20402;-79
2021/01/31 05:50:51;;;;;;;27.77;14.60;;;-1.30;99.90;;;;;;5033331;28;20192;-79
2021/01/31 05:53:27;;;;;;;29.02;16.40;;;-1.30;99.90;;;;;;5033154;28;20372;-78
2021/01/31 05:56:20;;;;;;;25.75;15.18;;;-1.40;99.90;;;;;;5033484;28;20111;-79
2021/01/31 05:58:48;;;;;;;37.80;15.30;;;-1.40;99.90;;;;;;5032239;28;20037;-79
2021/01/31 06:01:15;;;;;;;32.42;14.73;;;-1.40;99.90;;;;;;5033196;28;20038;-78
2021/01/31 06:03:42;;;;;;;25.73;15.55;;;-1.40;99.90;;;;;;5032595;28;20045;-78
2021/01/31 06:06:15;;;;;;;26.17;15.30;;;-1.40;99.90;;;;;;5032078;28;20065;-78
2021/01/31 06:08:44;;;;;;;29.65;15.65;;;-1.40;99.90;;;;;;5032040;28;20068;-78
2021/01/31 06:11:21;;;;;;;27.17;14.88;;;-1.50;99.90;;;;;;5032934;28;20041;-78
2021/01/31 06:14:00;;;;;;;26.13;15.60;;;-1.50;99.90;;;;;;5032210;28;20386;-78
2021/01/31 06:16:28;;;;;;;28.42;15.35;;;-1.50;99.90;;;;;;5032137;28;20041;-79
2021/01/31 06:19:00;;;;;;;30.08;15.43;;;-1.60;99.90;;;;;;5032724;28;20072;-79
2021/01/31 06:21:42;;;;;;;30.20;14.93;;;-1.60;99.90;;;;;;5032395;28;20049;-78
2021/01/31 06:24:25;;;;;;;27.38;15.80;;;-1.70;99.90;;;;;;5032005;28;20136;-78
2021/01/31 06:26:53;;;;;;;29.70;15.82;;;-1.70;99.90;;;;;;5032923;28;20076;-78
2021/01/31 06:29:36;;;;;;;28.20;16.60;;;-1.60;99.90;;;;;;5032633;28;20050;-79
2021/01/31 06:32:07;;;;;;;27.40;14.83;;;-1.70;99.90;;;;;;5032748;28;20041;-78
2021/01/31 06:34:35;;;;;;;27.20;14.30;;;-1.70;99.90;;;;;;5032152;28;20053;-78
2021/01/31 06:37:27;;;;;;;29.58;15.50;;;-1.70;99.90;;;;;;5032722;28;20399;-78
2021/01/31 06:40:07;;;;;;;27.40;14.93;;;-1.70;99.90;;;;;;5032776;28;20049;-78
2021/01/31 06:42:42;;;;;;;30.27;15.80;;;-1.70;99.90;;;;;;5031809;28;20053;-78
2021/01/31 06:45:19;;;;;;;27.15;15.23;;;-1.70;99.90;;;;;;5032356;28;20041;-78
2021/01/31 06:47:53;;;;;;;;;;;-1.80;99.90;;;;;;5032421;28;20067;-77
2021/01/31 06:50:27;;;;;;;29.88;14.95;;;-1.80;99.90;;;;;;5031490;28;19929;-77
2021/01/31 06:53:03;;;;;;;29.53;14.83;;;-1.90;99.90;;;;;;5030831;28;20102;-78
2021/01/31 06:56:02;;;;;;;30.25;14.63;;;-1.90;99.90;;;;;;5031867;28;20497;-78
2021/01/31 06:58:40;;;;;;;26.00;14.33;;;-1.90;99.90;;;;;;5031045;28;20037;-76
2021/01/31 07:01:33;;;;;;;29.60;14.57;;;-1.90;99.90;;;;;;5031672;28;20041;-77
2021/01/31 07:04:48;;;;;;;29.83;14.93;;;-1.90;99.90;;;;;;5030590;28;20041;-80
2021/01/31 07:07:45;;;;;;;25.87;14.17;;;-1.90;99.90;;;;;;5023993;28;20482;-82
2021/01/31 07:10:31;;;;;;;29.03;15.13;;;-1.80;99.90;;;;;;5016319;28;20597;-82
2021/01/31 07:13:08;;;;;;;28.57;16.37;;;-1.90;99.90;;;;;;5024273;28;20467;-79
2021/01/31 07:15:42;;;;;;;30.77;17.37;;;-1.80;99.90;;;;;;5012112;28;20123;-78
2021/01/31 07:18:12;;;;;;;28.80;15.03;;;-1.90;99.90;;;;;;5027181;28;20049;-80
2021/01/31 07:20:45;;;;;;;30.40;15.57;;;-1.80;99.90;;;;;;5025773;28;20054;-81
2021/01/31 07:23:16;;;;;;;30.33;16.93;;;-1.90;99.90;;;;;;5034402;28;20413;-79
2021/01/31 07:25:47;;;;;;;29.40;15.60;;;-1.80;99.90;;;;;;5035138;28;20038;-79
2021/01/31 07:28:19;;;;;;;30.47;16.10;;;-1.80;99.90;;;;;;5035386;28;20405;-79
2021/01/31 07:30:52;;;;;;;29.07;16.67;;;-1.80;99.90;;;;;;5024459;28;20509;-80
2021/01/31 07:33:25;;;;;;;42.30;21.77;;;-1.80;99.90;;;;;;5030418;28;20047;-79
2021/01/31 07:36:00;;;;;;;32.58;17.00;;;-1.80;99.90;;;;;;5035208;28;20128;-79
2021/01/31 07:38:33;;;;;;;46.90;26.65;;;-1.70;99.90;;;;;;5034600;28;20045;-78
2021/01/31 07:41:01;;;;;;;29.50;15.32;;;-1.60;99.90;;;;;;5034438;28;20037;-81
2021/01/31 07:43:32;;;;;;;37.13;21.08;;;-1.40;99.90;;;;;;5034245;28;20045;-80
2021/01/31 07:46:04;;;;;;;41.95;26.20;;;-1.40;99.90;;;;;;5035045;28;20041;-81
2021/01/31 07:48:55;;;;;;;35.42;21.48;;;-1.40;99.90;;;;;;5034748;28;20045;-79
2021/01/31 07:52:01;;;;;;;34.25;20.63;;;-1.30;99.90;;;;;;5034642;28;20037;-77
2021/01/31 07:54:31;;;;;;;131.10;51.08;;;-1.30;99.90;;;;;;5033571;28;20052;-77
2021/01/31 07:57:25;;;;;;;40.33;20.98;;;-1.20;99.90;;;;;;5034276;28;20083;-78
2021/01/31 07:59:53;;;;;;;33.53;18.45;;;-1.10;99.90;;;;;;5034703;28;20074;-78
2021/01/31 08:02:37;;;;;;;24.63;14.45;;;-0.90;99.90;;;;;;5019582;28;20050;-78
2021/01/31 08:05:06;;;;;;;26.38;16.38;;;-0.90;99.90;;;;;;5026982;28;20041;-78
2021/01/31 08:07:59;;;;;;;28.10;14.10;;;-0.80;99.90;;;;;;5017845;28;20108;-79
2021/01/31 08:10:46;;;;;;;20.92;12.32;;;-0.80;99.90;;;;;;5030488;28;20048;-78
2021/01/31 08:13:34;;;;;;;23.55;13.75;;;-0.70;99.90;;;;;;5030220;28;20045;-78
2021/01/31 08:16:00;;;;;;;22.27;12.07;;;-0.70;99.90;;;;;;5021800;28;20038;-78
2021/01/31 08:18:27;;;;;;;21.63;13.38;;;-0.60;99.90;;;;;;5033920;28;20137;-77
2021/01/31 08:20:55;;;;;;;21.63;13.15;;;-0.60;99.90;;;;;;5023679;28;20053;-80
2021/01/31 08:23:54;;;;;;;20.80;12.38;;;-0.50;99.90;;;;;;5028115;28;20112;-78
2021/01/31 08:26:45;;;;;;;21.50;12.07;;;-0.50;99.90;;;;;;5031221;28;20053;-78
2021/01/31 08:29:28;;;;;;;22.50;12.10;;;-0.40;99.90;;;;;;5021486;28;20120;-78
2021/01/31 08:32:16;;;;;;;21.23;12.27;;;-0.40;99.90;;;;;;5039411;28;20049;-79
2021/01/31 08:35:19;;;;;;;20.15;11.70;;;-0.40;99.90;;;;;;5043858;28;20041;-78
2021/01/31 08:37:50;;;;;;;18.48;11.50;;;-0.30;99.90;;;;;;5035852;28;20546;-78
2021/01/31 08:40:24;;;;;;;19.10;12.25;;;-0.20;99.90;;;;;;5034478;28;20068;-79
2021/01/31 08:42:56;;;;;;;21.35;11.82;;;-0.20;99.90;;;;;;5032166;28;20114;-79
2021/01/31 08:45:38;;;;;;;22.58;12.18;;;-0.10;99.90;;;;;;5033301;28;20048;-77
2021/01/31 08:48:05;;;;;;;19.60;12.02;;;0.00;99.90;;;;;;5029536;28;20139;-75
2021/01/31 08:50:31;;;;;;;22.58;13.15;;;0.30;99.90;;;;;;5030846;28;20045;-79
2021/01/31 08:53:01;;;;;;;26.58;15.40;;;0.10;99.90;;;;;;5031467;28;20037;-79
2021/01/31 08:55:29;;;;;;;22.30;13.80;;;0.20;99.90;;;;;;5029820;28;20037;-81
2021/01/31 08:58:03;;;;;;;23.73;12.77;;;0.30;99.90;;;;;;5027977;28;20049;-78
2021/01/31 09:00:32;;;;;;;21.60;13.05;;;0.50;99.90;;;;;;5014222;28;20125;-77
2021/01/31 09:02:59;;;;;;;19.67;12.38;;;0.50;99.90;;;;;;5029048;28;20045;-77
2021/01/31 09:05:26;;;;;;;16.92;10.73;;;0.50;99.90;;;;;;5031979;28;20044;-78
2021/01/31 09:08:01;;;;;;;20.95;11.88;;;0.70;99.90;;;;;;5025630;28;20033;-77
2021/01/31 09:10:39;;;;;;;18.92;11.95;;;0.90;99.90;;;;;;5013338;28;20071;-77
2021/01/31 09:13:17;;;;;;;19.27;10.93;;;0.90;99.90;;;;;;5018921;28;20041;-80
2021/01/31 09:15:44;;;;;;;21.65;12.05;;;0.90;99.90;;;;;;5028329;28;20470;-78
2021/01/31 09:18:19;;;;;;;18.95;11.30;;;0.90;99.90;;;;;;5020928;28;20124;-77
2021/01/31 09:20:46;;;;;;;18.80;11.15;;;1.00;99.90;;;;;;5033531;28;20343;-77
2021/01/31 09:23:20;;;;;;;20.42;11.38;;;1.00;99.90;;;;;;5028815;28;20414;-79
2021/01/31 09:25:47;;;;;;;17.00;11.05;;;1.00;99.90;;;;;;5023563;28;20116;-80
2021/01/31 09:28:20;;;;;;;16.92;11.07;;;1.00;99.90;;;;;;5030464;28;20052;-81
2021/01/31 09:30:47;;;;;;;21.75;12.05;;;1.00;99.90;;;;;;5023191;28;20072;-79
2021/01/31 09:33:23;;;;;;;17.45;11.65;;;0.80;99.90;;;;;;5033230;28;20398;-82
2021/01/31 09:35:49;;;;;;;18.65;11.23;;;0.90;99.90;;;;;;5029709;28;20475;-79
2021/01/31 09:38:24;;;;;;;20.40;13.20;;;0.90;99.90;;;;;;5030513;28;20091;-78
2021/01/31 09:40:55;;;;;;;19.40;11.48;;;1.10;99.90;;;;;;5027886;28;20502;-81
2021/01/31 09:43:25;;;;;;;18.80;11.82;;;1.10;99.90;;;;;;5023900;28;20034;-81
2021/01/31 09:45:54;;;;;;;16.92;10.32;;;1.30;99.90;;;;;;5028545;28;20041;-77
2021/01/31 09:48:23;;;;;;;22.30;11.63;;;1.70;99.90;;;;;;5032436;28;20124;-79
2021/01/31 09:50:52;;;;;;;16.83;11.85;;;1.90;99.90;;;;;;5032334;28;20065;-78
2021/01/31 09:53:31;;;;;;;18.30;11.02;;;1.70;99.90;;;;;;5028242;28;20042;-77
2021/01/31 09:55:59;;;;;;;18.08;12.05;;;1.50;99.90;;;;;;5033208;28;20072;-78
2021/01/31 09:58:31;;;;;;;17.23;11.10;;;1.30;99.90;;;;;;5007393;28;20426;-77
2021/01/31 10:01:10;;;;;;;18.70;12.48;;;1.30;99.90;;;;;;5021711;28;20112;-80
2021/01/31 10:03:36;;;;;;;19.63;11.93;;;1.40;99.90;;;;;;5026085;28;20045;-80
2021/01/31 10:06:08;;;;;;;19.55;12.07;;;1.40;99.90;;;;;;5021714;28;20499;-80
2021/01/31 10:08:39;;;;;;;17.02;12.00;;;1.50;99.90;;;;;;5031855;28;20049;-80
2021/01/31 10:11:26;;;;;;;26.55;19.08;;;1.30;99.90;;;;;;5029381;28;20050;-81
2021/01/31 10:13:54;;;;;;;18.70;12.52;;;1.40;99.90;;;;;;5029142;28;20049;-79
2021/01/31 10:16:29;;;;;;;23.50;12.82;;;1.60;99.90;;;;;;5032466;28;20059;-80
2021/01/31 10:19:13;;;;;;;21.80;12.07;;;1.50;99.90;;;;;;5032936;28;20053;-80
2021/01/31 10:21:44;;;;;;;16.52;11.20;;;1.80;99.90;;;;;;5032777;28;20508;-80
2021/01/31 10:24:31;;;;;;;20.48;12.10;;;1.80;99.90;;;;;;5031523;28;20104;-81
2021/01/31 10:27:07;;;;;;;19.80;12.60;;;1.70;99.90;;;;;;5032975;28;20045;-80
2021/01/31 10:29:34;;;;;;;20.27;12.13;;;1.60;99.90;;;;;;5032150;28;20440;-80
2021/01/31 10:32:26;;;;;;;19.58;11.95;;;1.60;99.90;;;;;;5015059;28;20046;-80
2021/01/31 10:34:55;;;;;;;19.48;12.88;;;1.80;99.90;;;;;;5032875;28;20112;-79
2021/01/31 10:37:34;;;;;;;18.38;12.00;;;1.90;99.90;;;;;;5029461;28;20049;-80
2021/01/31 10:40:02;;;;;;;19.73;12.27;;;2.00;99.90;;;;;;5027983;28;20437;-79
2021/01/31 10:42:28;;;;;;;18.50;11.63;;;2.20;99.90;;;;;;5027055;28;20103;-79
2021/01/31 10:45:03;;;;;;;18.08;12.05;;;2.30;99.90;;;;;;5032728;28;20068;-79
2021/01/31 10:47:30;;;;;;;19.55;12.23;;;2.40;99.90;;;;;;5033396;28;20049;-78
2021/01/31 10:49:56;;;;;;;18.42;12.43;;;2.20;99.90;;;;;;5033322;28;20107;-78
2021/01/31 10:52:24;;;;;;;16.05;11.55;;;2.30;99.90;;;;;;5032105;28;20045;-77
2021/01/31 10:54:50;;;;;;;18.17;11.60;;;2.30;99.90;;;;;;5032257;28;20049;-77
2021/01/31 10:57:18;;;;;;;;;;;2.00;99.90;;;;;;5032294;28;20044;-76
2021/01/31 10:59:45;;;;;;;17.10;10.93;;;1.70;99.90;;;;;;5019961;28;20051;-77
2021/01/31 11:02:12;;;;;;;18.20;12.40;;;1.80;99.90;;;;;;5030768;28;20506;-77
2021/01/31 11:04:39;;;;;;;18.60;10.82;;;2.00;99.90;;;;;;5033854;28;20038;-77
2021/01/31 11:07:06;;;;;;;19.05;11.55;;;2.00;99.90;;;;;;5032316;28;20045;-78
2021/01/31 11:09:34;;;;;;;;;;;2.10;99.90;;;;;;5031426;28;20088;-78
2021/01/31 11:12:00;;;;;;;21.40;12.85;;;1.90;99.90;;;;;;5031890;28;19920;-77
2021/01/31 11:14:29;;;;;;;18.52;11.90;;;1.90;99.90;;;;;;5031248;28;20048;-77
2021/01/31 11:16:58;;;;;;;16.73;11.85;;;1.80;99.90;;;;;;5030091;28;20120;-78
2021/01/31 11:19:24;;;;;;;19.90;12.80;;;2.00;99.90;;;;;;5032103;28;20159;-78
2021/01/31 11:21:51;;;;;;;17.45;11.52;;;2.10;99.90;;;;;;5032871;28;20041;-77
2021/01/31 11:24:17;;;;;;;20.02;12.23;;;1.80;99.90;;;;;;5029895;28;20081;-77
2021/01/31 11:26:44;;;;;;;;;;;1.80;99.90;;;;;;5031351;28;20475;-76
2021/01/31 11:29:11;;;;;;;21.75;13.65;;;1.80;99.90;;;;;;5013023;28;19921;-77
2021/01/31 11:31:38;;;;;;;20.60;12.55;;;1.90;99.90;;;;;;5028495;28;20100;-76
2021/01/31 11:34:05;;;;;;;18.15;12.73;;;2.00;99.90;;;;;;5032106;28;20494;-76
2021/01/31 11:36:31;;;;;;;18.50;13.25;;;2.30;99.90;;;;;;5031639;28;20037;-78
2021/01/31 11:39:05;;;;;;;18.48;12.15;;;2.30;99.90;;;;;;5030616;28;20121;-78
2021/01/31 11:41:32;;;;;;;17.92;11.68;;;2.30;99.90;;;;;;5031450;28;20099;-76
2021/01/31 11:43:58;;;;;;;;;;;2.20;99.90;;;;;;5030926;28;20047;-78
2021/01/31 11:46:26;;;;;;;17.95;11.40;;;2.30;99.90;;;;;;5031108;28;20023;-75
2021/01/31 11:48:53;;;;;;;16.67;11.52;;;2.30;99.90;;;;;;5026514;28;20061;-77
2021/01/31 11:51:20;;;;;;;18.73;12.52;;;2.50;99.90;;;;;;4993759;28;20088;-76
2021/01/31 11:53:48;;;;;;;19.90;13.18;;;2.50;99.90;;;;;;5023493;28;20120;-78
2021/01/31 11:56:17;;;;;;;18.40;12.02;;;2.50;99.90;;;;;;5029112;28;20081;-76
2021/01/31 11:58:43;;;;;;;21.02;13.55;;;2.50;99.90;;;;;;5031259;28;20052;-77
2021/01/31 12:01:13;;;;;;;;;;;2.30;99.90;;;;;;5032012;28;20132;-76
2021/01/31 12:03:39;;;;;;;20.45;12.05;;;2.40;99.90;;;;;;5019609;28;20032;-77
2021/01/31 12:06:07;;;;;;;20.40;12.82;;;2.40;99.90;;;;;;5023723;28;20044;-76
2021/01/31 12:08:35;;;;;;;46.28;20.35;;;2.40;99.90;;;;;;5022424;28;20034;-77
2021/01/31 12:11:02;;;;;;;19.58;12.52;;;2.30;99.90;;;;;;5032124;28;20049;-76
2021/01/31 12:13:28;;;;;;;;;;;2.20;99.90;;;;;;5033802;28;20044;-76
2021/01/31 12:15:55;;;;;;;18.50;11.90;;;2.30;99.90;;;;;;5017233;28;19925;-77
2021/01/31 12:18:22;;;;;;;17.60;11.48;;;2.40;99.90;;;;;;5026243;28;20049;-74
2021/01/31 12:20:48;;;;;;;16.95;11.35;;;2.30;99.90;;;;;;5003274;28;20124;-78
2021/01/31 12:23:17;;;;;;;19.40;12.30;;;2.20;99.90;;;;;;5001792;28;20065;-76
2021/01/31 12:25:44;;;;;;;21.30;13.45;;;2.40;99.90;;;;;;5015428;28;20566;-78
2021/01/31 12:28:10;;;;;;;17.70;12.48;;;2.40;99.90;;;;;;5031803;28;20072;-81
2021/01/31 12:30:36;;;;;;;;;;;2.40;99.90;;;;;;5034907;28;20037;-80
2021/01/31 12:33:04;;;;;;;17.30;11.30;;;2.50;99.90;;;;;;5035399;28;20019;-81
2021/01/31 12:35:31;;;;;;;18.85;12.32;;;2.30;99.90;;;;;;5033423;28;20056;-81
2021/01/31 12:37:58;;;;;;;29.15;15.73;;;2.20;99.90;;;;;;5020467;28;20417;-81
2021/01/31 12:40:28;;;;;;;19.05;13.40;;;2.20;99.90;;;;;;5030610;28;20517;-80
2021/01/31 12:42:55;;;;;;;19.38;12.77;;;2.30;99.90;;;;;;5034266;28;20544;-79
2021/01/31 12:45:23;;;;;;;20.08;12.52;;;2.40;99.90;;;;;;5032654;28;20052;-79
2021/01/31 12:47:50;;;;;;;52.80;18.83;;;2.40;99.90;;;;;;5033818;28;20042;-80
2021/01/31 12:50:19;;;;;;;23.63;13.18;;;2.30;99.90;;;;;;5022852;28;20053;-81
2021/01/31 12:52:46;;;;;;;33.83;15.68;;;2.20;99.90;;;;;;5023865;28;20038;-77
2021/01/31 12:55:14;;;;;;;79.93;25.70;;;2.10;99.90;;;;;;5030773;28;20513;-79
2021/01/31 12:57:41;;;;;;;22.60;13.38;;;2.10;99.90;;;;;;5030691;28;20494;-78
2021/01/31 13:00:11;;;;;;;22.42;13.52;;;2.20;99.90;;;;;;5030834;28;20147;-79